sensor_id;sensor_type;location;lat;lon;timestamp;P1;durP1;ratioP1;P2;durP2;ratioP2
28862;SDS011;15994;51.796;13.006;2023-07-31T00:01:11;4.43;;;2.10;;
28862;SDS011;15994;51.796;13.006;2023-07-31T00:03:38;3.72;;;1.65;;
28862;SDS011;15994;51.796;13.006;2023-07-31T00:06:05;3.35;;;2.00;;
28862;SDS011;15994;51.796;13.006;2023-07-31T00:08:32;3.67;;;1.70;;
28862;SDS011;15994;51.796;13.006;2023-07-31T00:10:59;2.80;;;1.80;;
28862;SDS011;15994;51.796;13.006;2023-07-31T00:13:26;2.58;;;1.60;;
28862;SDS011;15994;51.796;13.006;2023-07-31T00:15:53;4.43;;;2.00;;
28862;SDS011;15994;51.796;13.006;2023-07-31T00:18:20;3.55;;;1.80;;
28862;SDS011;15994;51.796;13.006;2023-07-31T00:20:47;4.88;;;1.63;;
28862;SDS011;15994;51.796;13.006;2023-07-31T00:23:14;2.83;;;1.55;;
28862;SDS011;15994;51.796;13.006;2023-07-31T00:25:41;3.72;;;1.73;;
28862;SDS011;15994;51.796;13.006;2023-07-31T00:28:08;2.95;;;1.67;;
28862;SDS011;15994;51.796;13.006;2023-07-31T00:30:35;2.85;;;1.50;;
28862;SDS011;15994;51.796;13.006;2023-07-31T00:33:02;2.67;;;1.40;;
28862;SDS011;15994;51.796;13.006;2023-07-31T00:35:29;3.97;;;1.50;;
28862;SDS011;15994;51.796;13.006;2023-07-31T00:37:57;3.65;;;1.85;;
28862;SDS011;15994;51.796;13.006;2023-07-31T00:40:24;2.97;;;1.40;;
28862;SDS011;15994;51.796;13.006;2023-07-31T00:42:51;2.53;;;1.40;;
28862;SDS011;15994;51.796;13.006;2023-07-31T00:45:18;4.13;;;1.50;;
28862;SDS011;15994;51.796;13.006;2023-07-31T00:47:47;3.25;;;1.30;;
28862;SDS011;15994;51.796;13.006;2023-07-31T00:50:15;4.05;;;1.77;;
28862;SDS011;15994;51.796;13.006;2023-07-31T00:52:42;3.55;;;1.90;;
28862;SDS011;15994;51.796;13.006;2023-07-31T00:55:09;2.95;;;1.40;;
28862;SDS011;15994;51.796;13.006;2023-07-31T00:57:36;2.78;;;1.45;;
28862;SDS011;15994;51.796;13.006;2023-07-31T01:00:03;3.42;;;1.30;;
28862;SDS011;15994;51.796;13.006;2023-07-31T01:02:30;3.55;;;1.40;;
28862;SDS011;15994;51.796;13.006;2023-07-31T01:04:57;3.25;;;1.70;;
28862;SDS011;15994;51.796;13.006;2023-07-31T01:07:32;2.85;;;1.38;;
28862;SDS011;15994;51.796;13.006;2023-07-31T01:10:20;1.98;;;1.27;;
28862;SDS011;15994;51.796;13.006;2023-07-31T01:12:49;3.63;;;1.63;;
28862;SDS011;15994;51.796;13.006;2023-07-31T01:15:16;3.75;;;1.40;;
28862;SDS011;15994;51.796;13.006;2023-07-31T01:17:44;3.28;;;1.73;;
28862;SDS011;15994;51.796;13.006;2023-07-31T01:20:17;4.38;;;1.40;;
28862;SDS011;15994;51.796;13.006;2023-07-31T01:27:55;2.00;;;1.10;;
28862;SDS011;15994;51.796;13.006;2023-07-31T01:30:27;4.85;;;1.27;;
28862;SDS011;15994;51.796;13.006;2023-07-31T01:32:54;3.25;;;1.50;;
28862;SDS011;15994;51.796;13.006;2023-07-31T01:35:22;2.65;;;1.48;;
28862;SDS011;15994;51.796;13.006;2023-07-31T01:37:52;3.53;;;1.50;;
28862;SDS011;15994;51.796;13.006;2023-07-31T01:40:19;3.13;;;1.35;;
28862;SDS011;15994;51.796;13.006;2023-07-31T01:42:46;3.95;;;1.75;;
28862;SDS011;15994;51.796;13.006;2023-07-31T01:45:13;2.92;;;1.60;;
28862;SDS011;15994;51.796;13.006;2023-07-31T01:47:40;3.15;;;1.20;;
28862;SDS011;15994;51.796;13.006;2023-07-31T01:50:07;3.28;;;1.58;;
28862;SDS011;15994;51.796;13.006;2023-07-31T01:52:34;3.90;;;1.80;;
28862;SDS011;15994;51.796;13.006;2023-07-31T01:55:01;4.03;;;1.48;;
28862;SDS011;15994;51.796;13.006;2023-07-31T01:57:28;2.97;;;1.20;;
28862;SDS011;15994;51.796;13.006;2023-07-31T01:59:55;2.65;;;1.25;;
28862;SDS011;15994;51.796;13.006;2023-07-31T02:02:22;2.90;;;1.20;;
28862;SDS011;15994;51.796;13.006;2023-07-31T02:04:49;3.63;;;1.17;;
28862;SDS011;15994;51.796;13.006;2023-07-31T02:07:16;2.42;;;1.20;;
28862;SDS011;15994;51.796;13.006;2023-07-31T02:09:43;2.30;;;1.30;;
28862;SDS011;15994;51.796;13.006;2023-07-31T02:12:11;3.75;;;1.40;;
28862;SDS011;15994;51.796;13.006;2023-07-31T02:14:39;3.30;;;1.33;;
28862;SDS011;15994;51.796;13.006;2023-07-31T02:17:06;4.03;;;1.27;;
28862;SDS011;15994;51.796;13.006;2023-07-31T02:19:33;3.72;;;1.30;;
28862;SDS011;15994;51.796;13.006;2023-07-31T02:22:00;3.53;;;1.40;;
28862;SDS011;15994;51.796;13.006;2023-07-31T02:24:27;2.10;;;1.00;;
28862;SDS011;15994;51.796;13.006;2023-07-31T02:26:54;3.05;;;1.40;;
28862;SDS011;15994;51.796;13.006;2023-07-31T02:29:21;2.80;;;1.08;;
28862;SDS011;15994;51.796;13.006;2023-07-31T02:31:48;3.03;;;1.05;;
28862;SDS011;15994;51.796;13.006;2023-07-31T02:34:15;2.03;;;1.02;;
28862;SDS011;15994;51.796;13.006;2023-07-31T02:36:42;2.75;;;1.33;;
28862;SDS011;15994;51.796;13.006;2023-07-31T02:39:09;3.22;;;1.30;;
28862;SDS011;15994;51.796;13.006;2023-07-31T02:41:36;3.50;;;1.20;;
28862;SDS011;15994;51.796;13.006;2023-07-31T02:44:03;5.85;;;1.52;;
28862;SDS011;15994;51.796;13.006;2023-07-31T02:46:30;3.78;;;1.50;;
28862;SDS011;15994;51.796;13.006;2023-07-31T02:48:57;3.53;;;1.15;;
28862;SDS011;15994;51.796;13.006;2023-07-31T02:51:24;2.92;;;1.30;;
28862;SDS011;15994;51.796;13.006;2023-07-31T02:53:51;3.83;;;1.20;;
28862;SDS011;15994;51.796;13.006;2023-07-31T02:56:18;3.05;;;1.17;;
28862;SDS011;15994;51.796;13.006;2023-07-31T02:58:45;2.95;;;1.10;;
28862;SDS011;15994;51.796;13.006;2023-07-31T03:01:12;3.28;;;1.20;;
28862;SDS011;15994;51.796;13.006;2023-07-31T03:03:40;2.92;;;1.10;;
28862;SDS011;15994;51.796;13.006;2023-07-31T03:06:07;4.32;;;1.40;;
28862;SDS011;15994;51.796;13.006;2023-07-31T03:08:34;3.80;;;1.30;;
28862;SDS011;15994;51.796;13.006;2023-07-31T03:11:01;3.28;;;1.10;;
28862;SDS011;15994;51.796;13.006;2023-07-31T03:13:28;3.85;;;1.30;;
28862;SDS011;15994;51.796;13.006;2023-07-31T03:15:55;3.30;;;1.20;;
28862;SDS011;15994;51.796;13.006;2023-07-31T03:18:22;3.15;;;1.13;;
28862;SDS011;15994;51.796;13.006;2023-07-31T03:20:49;2.50;;;1.00;;
28862;SDS011;15994;51.796;13.006;2023-07-31T03:23:16;2.58;;;1.10;;
28862;SDS011;15994;51.796;13.006;2023-07-31T03:25:59;3.28;;;1.30;;
28862;SDS011;15994;51.796;13.006;2023-07-31T03:28:26;2.50;;;1.17;;
28862;SDS011;15994;51.796;13.006;2023-07-31T03:30:53;4.15;;;1.10;;
28862;SDS011;15994;51.796;13.006;2023-07-31T03:33:20;4.25;;;1.40;;
28862;SDS011;15994;51.796;13.006;2023-07-31T03:35:47;2.28;;;1.10;;
28862;SDS011;15994;51.796;13.006;2023-07-31T03:38:14;2.70;;;1.20;;
28862;SDS011;15994;51.796;13.006;2023-07-31T03:40:41;3.53;;;1.30;;
28862;SDS011;15994;51.796;13.006;2023-07-31T03:43:08;3.22;;;1.40;;
28862;SDS011;15994;51.796;13.006;2023-07-31T03:45:35;3.10;;;0.98;;
28862;SDS011;15994;51.796;13.006;2023-07-31T03:48:03;3.25;;;1.27;;
28862;SDS011;15994;51.796;13.006;2023-07-31T03:50:30;2.65;;;1.30;;
28862;SDS011;15994;51.796;13.006;2023-07-31T03:52:57;2.33;;;1.10;;
28862;SDS011;15994;51.796;13.006;2023-07-31T03:55:24;4.25;;;1.40;;
28862;SDS011;15994;51.796;13.006;2023-07-31T03:57:51;4.78;;;1.38;;
28862;SDS011;15994;51.796;13.006;2023-07-31T04:00:18;2.95;;;1.20;;
28862;SDS011;15994;51.796;13.006;2023-07-31T04:02:45;3.35;;;1.20;;
28862;SDS011;15994;51.796;13.006;2023-07-31T04:05:12;4.40;;;1.30;;
28862;SDS011;15994;51.796;13.006;2023-07-31T04:07:39;3.22;;;1.30;;
28862;SDS011;15994;51.796;13.006;2023-07-31T04:10:06;3.38;;;1.30;;
28862;SDS011;15994;51.796;13.006;2023-07-31T04:12:33;3.45;;;1.50;;
28862;SDS011;15994;51.796;13.006;2023-07-31T04:15:00;2.17;;;1.20;;
28862;SDS011;15994;51.796;13.006;2023-07-31T04:17:27;3.55;;;1.20;;
28862;SDS011;15994;51.796;13.006;2023-07-31T04:19:54;3.75;;;1.20;;
28862;SDS011;15994;51.796;13.006;2023-07-31T04:22:21;3.97;;;1.40;;
28862;SDS011;15994;51.796;13.006;2023-07-31T04:24:48;4.30;;;1.20;;
28862;SDS011;15994;51.796;13.006;2023-07-31T04:27:15;2.97;;;1.20;;
28862;SDS011;15994;51.796;13.006;2023-07-31T04:29:42;3.22;;;1.15;;
28862;SDS011;15994;51.796;13.006;2023-07-31T04:32:11;3.13;;;1.20;;
28862;SDS011;15994;51.796;13.006;2023-07-31T04:34:40;3.80;;;1.00;;
28862;SDS011;15994;51.796;13.006;2023-07-31T04:37:07;3.00;;;1.20;;
28862;SDS011;15994;51.796;13.006;2023-07-31T04:39:34;5.07;;;1.38;;
28862;SDS011;15994;51.796;13.006;2023-07-31T04:42:01;4.63;;;1.20;;
28862;SDS011;15994;51.796;13.006;2023-07-31T04:44:28;4.80;;;1.33;;
28862;SDS011;15994;51.796;13.006;2023-07-31T04:46:55;3.22;;;1.30;;
28862;SDS011;15994;51.796;13.006;2023-07-31T04:49:22;3.45;;;0.98;;
28862;SDS011;15994;51.796;13.006;2023-07-31T04:51:49;5.38;;;1.20;;
28862;SDS011;15994;51.796;13.006;2023-07-31T04:54:16;6.10;;;1.20;;
28862;SDS011;15994;51.796;13.006;2023-07-31T04:56:43;2.95;;;1.23;;
28862;SDS011;15994;51.796;13.006;2023-07-31T04:59:10;2.90;;;1.00;;
28862;SDS011;15994;51.796;13.006;2023-07-31T05:01:37;3.95;;;1.15;;
28862;SDS011;15994;51.796;13.006;2023-07-31T05:04:04;4.00;;;1.30;;
28862;SDS011;15994;51.796;13.006;2023-07-31T05:06:31;4.80;;;1.30;;
28862;SDS011;15994;51.796;13.006;2023-07-31T05:08:58;2.70;;;1.25;;
28862;SDS011;15994;51.796;13.006;2023-07-31T05:11:25;5.22;;;1.33;;
28862;SDS011;15994;51.796;13.006;2023-07-31T05:13:52;5.05;;;1.25;;
28862;SDS011;15994;51.796;13.006;2023-07-31T05:16:19;3.83;;;1.20;;
28862;SDS011;15994;51.796;13.006;2023-07-31T05:18:46;4.47;;;1.52;;
28862;SDS011;15994;51.796;13.006;2023-07-31T05:21:13;5.05;;;1.42;;
28862;SDS011;15994;51.796;13.006;2023-07-31T05:23:40;4.95;;;1.50;;
28862;SDS011;15994;51.796;13.006;2023-07-31T05:26:07;9.85;;;1.88;;
28862;SDS011;15994;51.796;13.006;2023-07-31T05:28:34;6.38;;;1.50;;
28862;SDS011;15994;51.796;13.006;2023-07-31T05:31:02;6.00;;;1.95;;
28862;SDS011;15994;51.796;13.006;2023-07-31T05:33:29;6.05;;;1.42;;
28862;SDS011;15994;51.796;13.006;2023-07-31T05:35:56;5.55;;;1.65;;
28862;SDS011;15994;51.796;13.006;2023-07-31T05:38:23;6.45;;;1.60;;
28862;SDS011;15994;51.796;13.006;2023-07-31T05:40:50;7.10;;;1.77;;
28862;SDS011;15994;51.796;13.006;2023-07-31T05:43:17;7.15;;;2.08;;
28862;SDS011;15994;51.796;13.006;2023-07-31T05:45:44;7.07;;;1.85;;
28862;SDS011;15994;51.796;13.006;2023-07-31T05:48:11;4.05;;;1.60;;
28862;SDS011;15994;51.796;13.006;2023-07-31T05:50:38;4.93;;;1.92;;
28862;SDS011;15994;51.796;13.006;2023-07-31T05:53:05;4.18;;;1.40;;
28862;SDS011;15994;51.796;13.006;2023-07-31T05:55:36;4.72;;;1.50;;
28862;SDS011;15994;51.796;13.006;2023-07-31T05:58:03;3.92;;;1.75;;
28862;SDS011;15994;51.796;13.006;2023-07-31T06:00:30;3.50;;;1.33;;
28862;SDS011;15994;51.796;13.006;2023-07-31T06:02:57;7.00;;;1.75;;
28862;SDS011;15994;51.796;13.006;2023-07-31T06:05:24;5.88;;;1.88;;
28862;SDS011;15994;51.796;13.006;2023-07-31T06:07:51;5.82;;;1.80;;
28862;SDS011;15994;51.796;13.006;2023-07-31T06:10:18;6.95;;;2.20;;
28862;SDS011;15994;51.796;13.006;2023-07-31T06:12:45;5.40;;;1.92;;
28862;SDS011;15994;51.796;13.006;2023-07-31T06:15:12;5.10;;;1.73;;
28862;SDS011;15994;51.796;13.006;2023-07-31T06:17:39;7.68;;;2.10;;
28862;SDS011;15994;51.796;13.006;2023-07-31T06:20:07;7.22;;;1.80;;
28862;SDS011;15994;51.796;13.006;2023-07-31T06:22:35;4.97;;;1.67;;
28862;SDS011;15994;51.796;13.006;2023-07-31T06:25:02;6.25;;;1.63;;
28862;SDS011;15994;51.796;13.006;2023-07-31T06:27:29;3.55;;;1.60;;
28862;SDS011;15994;51.796;13.006;2023-07-31T06:29:57;5.70;;;1.60;;
28862;SDS011;15994;51.796;13.006;2023-07-31T06:32:24;4.30;;;1.63;;
28862;SDS011;15994;51.796;13.006;2023-07-31T06:34:51;3.15;;;1.38;;
28862;SDS011;15994;51.796;13.006;2023-07-31T06:37:19;5.25;;;1.55;;
28862;SDS011;15994;51.796;13.006;2023-07-31T06:39:46;3.97;;;1.75;;
28862;SDS011;15994;51.796;13.006;2023-07-31T06:42:13;4.22;;;1.70;;
28862;SDS011;15994;51.796;13.006;2023-07-31T06:44:40;4.57;;;1.70;;
28862;SDS011;15994;51.796;13.006;2023-07-31T06:47:07;3.00;;;1.58;;
28862;SDS011;15994;51.796;13.006;2023-07-31T06:49:34;3.88;;;1.55;;
28862;SDS011;15994;51.796;13.006;2023-07-31T06:52:01;5.90;;;1.77;;
28862;SDS011;15994;51.796;13.006;2023-07-31T06:54:28;3.05;;;1.58;;
28862;SDS011;15994;51.796;13.006;2023-07-31T06:56:55;5.03;;;1.73;;
28862;SDS011;15994;51.796;13.006;2023-07-31T06:59:22;4.65;;;1.40;;
28862;SDS011;15994;51.796;13.006;2023-07-31T07:01:49;4.53;;;1.73;;
28862;SDS011;15994;51.796;13.006;2023-07-31T07:04:16;4.93;;;1.80;;
28862;SDS011;15994;51.796;13.006;2023-07-31T07:06:43;4.50;;;1.65;;
28862;SDS011;15994;51.796;13.006;2023-07-31T07:09:10;4.10;;;1.52;;
28862;SDS011;15994;51.796;13.006;2023-07-31T07:11:37;4.57;;;1.50;;
28862;SDS011;15994;51.796;13.006;2023-07-31T07:14:04;4.90;;;1.90;;
28862;SDS011;15994;51.796;13.006;2023-07-31T07:16:31;5.15;;;1.85;;
28862;SDS011;15994;51.796;13.006;2023-07-31T07:18:58;4.63;;;1.65;;
28862;SDS011;15994;51.796;13.006;2023-07-31T07:21:25;4.15;;;1.58;;
28862;SDS011;15994;51.796;13.006;2023-07-31T07:23:52;3.67;;;1.70;;
28862;SDS011;15994;51.796;13.006;2023-07-31T07:26:19;5.80;;;1.70;;
28862;SDS011;15994;51.796;13.006;2023-07-31T07:28:46;5.00;;;2.03;;
28862;SDS011;15994;51.796;13.006;2023-07-31T07:31:13;3.42;;;1.70;;
28862;SDS011;15994;51.796;13.006;2023-07-31T07:33:40;4.43;;;1.92;;
28862;SDS011;15994;51.796;13.006;2023-07-31T07:36:07;5.93;;;1.98;;
28862;SDS011;15994;51.796;13.006;2023-07-31T07:38:34;5.15;;;1.63;;
28862;SDS011;15994;51.796;13.006;2023-07-31T07:41:04;5.05;;;1.80;;
28862;SDS011;15994;51.796;13.006;2023-07-31T07:43:31;4.53;;;1.63;;
28862;SDS011;15994;51.796;13.006;2023-07-31T07:45:58;5.30;;;1.80;;
28862;SDS011;15994;51.796;13.006;2023-07-31T07:48:25;4.63;;;1.70;;
28862;SDS011;15994;51.796;13.006;2023-07-31T07:50:52;4.93;;;1.77;;
28862;SDS011;15994;51.796;13.006;2023-07-31T07:53:19;4.60;;;1.58;;
28862;SDS011;15994;51.796;13.006;2023-07-31T07:55:46;4.60;;;1.88;;
28862;SDS011;15994;51.796;13.006;2023-07-31T07:58:13;4.45;;;1.90;;
28862;SDS011;15994;51.796;13.006;2023-07-31T08:00:40;4.80;;;1.85;;
28862;SDS011;15994;51.796;13.006;2023-07-31T08:03:07;5.05;;;2.08;;
28862;SDS011;15994;51.796;13.006;2023-07-31T08:05:34;4.78;;;2.05;;
28862;SDS011;15994;51.796;13.006;2023-07-31T08:08:01;3.88;;;1.67;;
28862;SDS011;15994;51.796;13.006;2023-07-31T08:10:28;5.18;;;1.90;;
28862;SDS011;15994;51.796;13.006;2023-07-31T08:12:55;5.32;;;1.80;;
28862;SDS011;15994;51.796;13.006;2023-07-31T08:15:22;4.70;;;1.60;;
28862;SDS011;15994;51.796;13.006;2023-07-31T08:17:49;4.13;;;1.80;;
28862;SDS011;15994;51.796;13.006;2023-07-31T08:20:16;4.47;;;1.73;;
28862;SDS011;15994;51.796;13.006;2023-07-31T08:22:43;5.43;;;2.13;;
28862;SDS011;15994;51.796;13.006;2023-07-31T08:25:11;5.82;;;2.10;;
28862;SDS011;15994;51.796;13.006;2023-07-31T08:27:38;4.22;;;1.70;;
28862;SDS011;15994;51.796;13.006;2023-07-31T08:30:05;5.15;;;2.05;;
28862;SDS011;15994;51.796;13.006;2023-07-31T08:32:32;4.65;;;1.77;;
28862;SDS011;15994;51.796;13.006;2023-07-31T08:34:59;7.00;;;2.10;;
28862;SDS011;15994;51.796;13.006;2023-07-31T08:37:27;3.78;;;1.77;;
28862;SDS011;15994;51.796;13.006;2023-07-31T08:39:54;5.03;;;1.75;;
28862;SDS011;15994;51.796;13.006;2023-07-31T08:42:21;4.00;;;1.80;;
28862;SDS011;15994;51.796;13.006;2023-07-31T08:44:50;4.57;;;1.77;;
28862;SDS011;15994;51.796;13.006;2023-07-31T08:47:17;5.00;;;1.65;;
28862;SDS011;15994;51.796;13.006;2023-07-31T08:49:45;5.28;;;1.90;;
28862;SDS011;15994;51.796;13.006;2023-07-31T08:52:13;3.83;;;1.88;;
28862;SDS011;15994;51.796;13.006;2023-07-31T08:54:40;5.38;;;1.73;;
28862;SDS011;15994;51.796;13.006;2023-07-31T08:57:07;4.75;;;1.85;;
28862;SDS011;15994;51.796;13.006;2023-07-31T08:59:34;4.65;;;1.75;;
28862;SDS011;15994;51.796;13.006;2023-07-31T09:02:03;4.68;;;1.80;;
28862;SDS011;15994;51.796;13.006;2023-07-31T09:04:32;4.25;;;1.80;;
28862;SDS011;15994;51.796;13.006;2023-07-31T09:07:02;4.45;;;1.73;;
28862;SDS011;15994;51.796;13.006;2023-07-31T09:09:30;4.20;;;1.67;;
28862;SDS011;15994;51.796;13.006;2023-07-31T09:11:57;4.95;;;1.95;;
28862;SDS011;15994;51.796;13.006;2023-07-31T09:14:25;6.00;;;1.92;;
28862;SDS011;15994;51.796;13.006;2023-07-31T09:16:56;3.70;;;1.80;;
28862;SDS011;15994;51.796;13.006;2023-07-31T09:19:34;4.90;;;1.88;;
28862;SDS011;15994;51.796;13.006;2023-07-31T09:22:02;3.42;;;1.70;;
28862;SDS011;15994;51.796;13.006;2023-07-31T09:24:31;3.45;;;1.60;;
28862;SDS011;15994;51.796;13.006;2023-07-31T09:26:58;4.90;;;1.80;;
28862;SDS011;15994;51.796;13.006;2023-07-31T09:29:26;4.05;;;1.67;;
28862;SDS011;15994;51.796;13.006;2023-07-31T09:31:54;4.30;;;1.88;;
28862;SDS011;15994;51.796;13.006;2023-07-31T09:34:28;3.88;;;1.65;;
28862;SDS011;15994;51.796;13.006;2023-07-31T09:36:57;4.82;;;1.80;;
28862;SDS011;15994;51.796;13.006;2023-07-31T09:39:24;5.85;;;1.58;;
28862;SDS011;15994;51.796;13.006;2023-07-31T09:41:55;5.38;;;1.67;;
28862;SDS011;15994;51.796;13.006;2023-07-31T09:44:36;3.80;;;1.70;;
28862;SDS011;15994;51.796;13.006;2023-07-31T09:47:05;3.90;;;1.80;;
28862;SDS011;15994;51.796;13.006;2023-07-31T09:49:32;4.38;;;1.60;;
28862;SDS011;15994;51.796;13.006;2023-07-31T09:51:59;3.10;;;1.50;;
28862;SDS011;15994;51.796;13.006;2023-07-31T09:54:26;5.53;;;1.90;;
28862;SDS011;15994;51.796;13.006;2023-07-31T09:56:53;4.82;;;1.85;;
28862;SDS011;15994;51.796;13.006;2023-07-31T09:59:21;5.32;;;1.60;;
28862;SDS011;15994;51.796;13.006;2023-07-31T10:01:48;3.80;;;1.70;;
28862;SDS011;15994;51.796;13.006;2023-07-31T10:04:16;6.18;;;2.22;;
28862;SDS011;15994;51.796;13.006;2023-07-31T10:06:48;3.47;;;1.67;;
28862;SDS011;15994;51.796;13.006;2023-07-31T10:09:16;4.47;;;1.98;;
28862;SDS011;15994;51.796;13.006;2023-07-31T10:11:50;3.47;;;1.95;;
28862;SDS011;15994;51.796;13.006;2023-07-31T10:14:20;3.92;;;1.88;;
28862;SDS011;15994;51.796;13.006;2023-07-31T10:16:48;3.92;;;1.90;;
28862;SDS011;15994;51.796;13.006;2023-07-31T10:19:17;7.35;;;2.03;;
28862;SDS011;15994;51.796;13.006;2023-07-31T10:21:44;3.72;;;1.98;;
28862;SDS011;15994;51.796;13.006;2023-07-31T10:24:12;3.25;;;1.73;;
28862;SDS011;15994;51.796;13.006;2023-07-31T10:26:39;4.18;;;1.95;;
28862;SDS011;15994;51.796;13.006;2023-07-31T10:29:06;4.35;;;1.90;;
28862;SDS011;15994;51.796;13.006;2023-07-31T10:31:34;5.15;;;2.00;;
28862;SDS011;15994;51.796;13.006;2023-07-31T10:34:01;4.55;;;1.70;;
28862;SDS011;15994;51.796;13.006;2023-07-31T10:36:28;4.20;;;1.65;;
28862;SDS011;15994;51.796;13.006;2023-07-31T10:38:56;6.13;;;1.80;;
28862;SDS011;15994;51.796;13.006;2023-07-31T10:41:28;3.97;;;1.95;;
28862;SDS011;15994;51.796;13.006;2023-07-31T10:44:01;6.00;;;2.30;;
28862;SDS011;15994;51.796;13.006;2023-07-31T10:46:29;6.18;;;2.05;;
28862;SDS011;15994;51.796;13.006;2023-07-31T10:48:59;4.07;;;1.92;;
28862;SDS011;15994;51.796;13.006;2023-07-31T10:51:32;5.18;;;1.92;;
28862;SDS011;15994;51.796;13.006;2023-07-31T10:54:10;5.15;;;2.15;;
28862;SDS011;15994;51.796;13.006;2023-07-31T10:56:37;4.18;;;1.95;;
28862;SDS011;15994;51.796;13.006;2023-07-31T10:59:04;4.15;;;2.00;;
28862;SDS011;15994;51.796;13.006;2023-07-31T11:04:21;6.18;;;2.10;;
28862;SDS011;15994;51.796;13.006;2023-07-31T11:06:56;6.18;;;2.33;;
28862;SDS011;15994;51.796;13.006;2023-07-31T11:09:24;5.00;;;2.25;;
28862;SDS011;15994;51.796;13.006;2023-07-31T11:11:51;5.40;;;2.25;;
28862;SDS011;15994;51.796;13.006;2023-07-31T11:14:19;5.97;;;2.13;;
28862;SDS011;15994;51.796;13.006;2023-07-31T11:16:49;8.00;;;2.42;;
28862;SDS011;15994;51.796;13.006;2023-07-31T11:19:21;4.68;;;2.15;;
28862;SDS011;15994;51.796;13.006;2023-07-31T11:21:48;4.05;;;1.98;;
28862;SDS011;15994;51.796;13.006;2023-07-31T11:24:15;4.95;;;2.20;;
28862;SDS011;15994;51.796;13.006;2023-07-31T11:26:52;4.85;;;2.10;;
28862;SDS011;15994;51.796;13.006;2023-07-31T11:29:19;6.55;;;2.17;;
28862;SDS011;15994;51.796;13.006;2023-07-31T11:31:46;5.75;;;2.00;;
28862;SDS011;15994;51.796;13.006;2023-07-31T11:34:14;5.90;;;2.40;;
28862;SDS011;15994;51.796;13.006;2023-07-31T11:36:47;4.05;;;1.88;;
28862;SDS011;15994;51.796;13.006;2023-07-31T11:39:18;4.32;;;2.08;;
28862;SDS011;15994;51.796;13.006;2023-07-31T11:41:45;6.00;;;2.25;;
28862;SDS011;15994;51.796;13.006;2023-07-31T11:44:12;5.47;;;1.90;;
28862;SDS011;15994;51.796;13.006;2023-07-31T11:46:39;4.05;;;2.00;;
28862;SDS011;15994;51.796;13.006;2023-07-31T11:49:07;5.28;;;2.03;;
28862;SDS011;15994;51.796;13.006;2023-07-31T11:51:34;4.45;;;1.88;;
28862;SDS011;15994;51.796;13.006;2023-07-31T11:54:01;4.72;;;2.15;;
28862;SDS011;15994;51.796;13.006;2023-07-31T11:56:28;6.82;;;2.40;;
28862;SDS011;15994;51.796;13.006;2023-07-31T11:58:57;5.47;;;2.20;;
28862;SDS011;15994;51.796;13.006;2023-07-31T12:01:26;5.75;;;2.25;;
28862;SDS011;15994;51.796;13.006;2023-07-31T12:03:53;7.05;;;2.55;;
28862;SDS011;15994;51.796;13.006;2023-07-31T12:06:21;6.20;;;2.50;;
28862;SDS011;15994;51.796;13.006;2023-07-31T12:08:48;7.25;;;1.85;;
28862;SDS011;15994;51.796;13.006;2023-07-31T12:11:15;4.28;;;1.95;;
28862;SDS011;15994;51.796;13.006;2023-07-31T12:13:43;3.90;;;2.15;;
28862;SDS011;15994;51.796;13.006;2023-07-31T12:16:10;4.15;;;2.10;;
28862;SDS011;15994;51.796;13.006;2023-07-31T12:18:37;4.80;;;2.15;;
28862;SDS011;15994;51.796;13.006;2023-07-31T12:21:05;3.53;;;2.05;;
28862;SDS011;15994;51.796;13.006;2023-07-31T12:23:33;6.65;;;2.28;;
28862;SDS011;15994;51.796;13.006;2023-07-31T12:26:01;3.58;;;1.92;;
28862;SDS011;15994;51.796;13.006;2023-07-31T12:28:28;4.20;;;2.05;;
28862;SDS011;15994;51.796;13.006;2023-07-31T12:30:59;5.57;;;2.05;;
28862;SDS011;15994;51.796;13.006;2023-07-31T12:33:45;4.15;;;2.08;;
28862;SDS011;15994;51.796;13.006;2023-07-31T12:36:13;3.55;;;2.50;;
28862;SDS011;15994;51.796;13.006;2023-07-31T12:38:41;5.03;;;2.40;;
28862;SDS011;15994;51.796;13.006;2023-07-31T12:41:08;4.82;;;2.40;;
28862;SDS011;15994;51.796;13.006;2023-07-31T12:43:36;4.78;;;2.05;;
28862;SDS011;15994;51.796;13.006;2023-07-31T12:46:03;4.50;;;2.20;;
28862;SDS011;15994;51.796;13.006;2023-07-31T12:48:32;2.95;;;1.88;;
28862;SDS011;15994;51.796;13.006;2023-07-31T12:50:59;5.50;;;2.30;;
28862;SDS011;15994;51.796;13.006;2023-07-31T12:53:27;4.60;;;2.40;;
28862;SDS011;15994;51.796;13.006;2023-07-31T12:55:55;3.92;;;2.20;;
28862;SDS011;15994;51.796;13.006;2023-07-31T12:58:22;3.58;;;1.98;;
28862;SDS011;15994;51.796;13.006;2023-07-31T13:00:49;4.82;;;2.00;;
28862;SDS011;15994;51.796;13.006;2023-07-31T13:03:16;3.50;;;2.08;;
28862;SDS011;15994;51.796;13.006;2023-07-31T13:05:43;4.90;;;2.28;;
28862;SDS011;15994;51.796;13.006;2023-07-31T13:08:10;3.33;;;1.90;;
28862;SDS011;15994;51.796;13.006;2023-07-31T13:10:37;4.55;;;2.22;;
28862;SDS011;15994;51.796;13.006;2023-07-31T13:13:04;3.15;;;1.83;;
28862;SDS011;15994;51.796;13.006;2023-07-31T13:15:31;4.65;;;1.90;;
28862;SDS011;15994;51.796;13.006;2023-07-31T13:17:58;5.65;;;2.42;;
28862;SDS011;15994;51.796;13.006;2023-07-31T13:20:25;4.28;;;1.85;;
28862;SDS011;15994;51.796;13.006;2023-07-31T13:22:52;4.00;;;2.20;;
28862;SDS011;15994;51.796;13.006;2023-07-31T13:25:19;5.65;;;2.08;;
28862;SDS011;15994;51.796;13.006;2023-07-31T13:27:46;5.00;;;2.30;;
28862;SDS011;15994;51.796;13.006;2023-07-31T13:30:13;5.25;;;2.20;;
28862;SDS011;15994;51.796;13.006;2023-07-31T13:32:40;5.03;;;2.20;;
28862;SDS011;15994;51.796;13.006;2023-07-31T13:35:07;5.47;;;2.20;;
28862;SDS011;15994;51.796;13.006;2023-07-31T13:37:36;5.43;;;2.20;;
28862;SDS011;15994;51.796;13.006;2023-07-31T13:40:03;5.20;;;2.30;;
28862;SDS011;15994;51.796;13.006;2023-07-31T13:42:30;4.13;;;2.20;;
28862;SDS011;15994;51.796;13.006;2023-07-31T13:44:57;5.10;;;2.35;;
28862;SDS011;15994;51.796;13.006;2023-07-31T13:47:25;3.40;;;1.95;;
28862;SDS011;15994;51.796;13.006;2023-07-31T13:49:52;5.00;;;2.30;;
28862;SDS011;15994;51.796;13.006;2023-07-31T13:52:19;3.42;;;1.98;;
28862;SDS011;15994;51.796;13.006;2023-07-31T13:54:46;4.15;;;2.53;;
28862;SDS011;15994;51.796;13.006;2023-07-31T13:57:13;4.85;;;2.40;;
28862;SDS011;15994;51.796;13.006;2023-07-31T13:59:40;5.63;;;2.47;;
28862;SDS011;15994;51.796;13.006;2023-07-31T14:02:07;4.95;;;2.08;;
28862;SDS011;15994;51.796;13.006;2023-07-31T14:04:34;4.55;;;2.20;;
28862;SDS011;15994;51.796;13.006;2023-07-31T14:07:01;3.58;;;2.03;;
28862;SDS011;15994;51.796;13.006;2023-07-31T14:09:29;5.05;;;2.20;;
28862;SDS011;15994;51.796;13.006;2023-07-31T14:11:56;5.43;;;2.22;;
28862;SDS011;15994;51.796;13.006;2023-07-31T14:14:23;4.03;;;1.95;;
28862;SDS011;15994;51.796;13.006;2023-07-31T14:16:50;4.85;;;2.45;;
28862;SDS011;15994;51.796;13.006;2023-07-31T14:19:17;4.80;;;2.08;;
28862;SDS011;15994;51.796;13.006;2023-07-31T14:21:45;3.80;;;1.98;;
28862;SDS011;15994;51.796;13.006;2023-07-31T14:24:12;6.93;;;2.50;;
28862;SDS011;15994;51.796;13.006;2023-07-31T14:26:39;5.57;;;2.40;;
28862;SDS011;15994;51.796;13.006;2023-07-31T14:29:06;6.18;;;2.80;;
28862;SDS011;15994;51.796;13.006;2023-07-31T14:31:33;4.40;;;2.75;;
28862;SDS011;15994;51.796;13.006;2023-07-31T14:34:00;4.88;;;2.20;;
28862;SDS011;15994;51.796;13.006;2023-07-31T14:36:27;4.93;;;2.33;;
28862;SDS011;15994;51.796;13.006;2023-07-31T14:38:54;5.85;;;2.55;;
28862;SDS011;15994;51.796;13.006;2023-07-31T14:41:21;4.95;;;2.50;;
28862;SDS011;15994;51.796;13.006;2023-07-31T14:43:48;7.80;;;2.40;;